Time;durP1;ratioP1;P1;durP2;ratioP2;P2;SDS_P1;SDS_P2;PMS_P1;PMS_P2;Temp;Humidity;BMP_temperature;BMP_pressure;BME280_temperature;BME280_humidity;BME280_pressure;Samples;Min_cycle;Max_cycle;Signal;HPM_P1;HPM_P2
2024/01/12 00:02:18;;;;;;;13.05;7.25;;;;;;;;;;6257326;22;20015;-80
2024/01/12 00:04:44;;;;;;;10.65;6.93;;;;;;;;;;6259005;22;20031;-81
2024/01/12 00:07:10;;;;;;;13.27;6.88;;;;;;;;;;6258270;22;20066;-80
2024/01/12 00:09:36;;;;;;;14.55;6.95;;;;;;;;;;6258152;22;20065;-80
2024/01/12 00:12:03;;;;;;;14.18;6.93;;;;;;;;;;6258209;22;20325;-80
2024/01/12 00:14:29;;;;;;;10.02;5.38;;;;;;;;;;6258871;22;20387;-80
2024/01/12 00:16:55;;;;;;;9.38;5.60;;;;;;;;;;6257540;22;20015;-79
2024/01/12 00:19:21;;;;;;;9.95;5.70;;;;;;;;;;6258236;22;20167;-81
2024/01/12 00:21:47;;;;;;;9.35;5.40;;;;;;;;;;6257691;22;20330;-80
2024/01/12 00:24:14;;;;;;;9.38;5.35;;;;;;;;;;6259016;22;20023;-80
2024/01/12 00:26:43;;;;;;;9.20;5.40;;;;;;;;;;6258103;22;20015;-80
2024/01/12 00:29:09;;;;;;;9.07;5.70;;;;;;;;;;6258152;22;20023;-80
2024/01/12 00:31:36;;;;;;;10.35;5.97;;;;;;;;;;6257427;22;20023;-80
2024/01/12 00:34:02;;;;;;;17.05;6.03;;;;;;;;;;6257992;22;20022;-80
2024/01/12 00:36:28;;;;;;;11.90;5.22;;;;;;;;;;6257416;22;20011;-80
2024/01/12 00:38:54;;;;;;;12.57;5.85;;;;;;;;;;6257763;22;20023;-81
2024/01/12 00:41:22;;;;;;;10.13;5.32;;;;;;;;;;6258077;22;20069;-80
2024/01/12 00:43:48;;;;;;;10.15;5.72;;;;;;;;;;6257953;22;20031;-80
2024/01/12 00:46:14;;;;;;;11.25;5.47;;;;;;;;;;6256852;22;20088;-80
2024/01/12 00:48:40;;;;;;;13.75;5.32;;;;;;;;;;6258192;22;20019;-80
2024/01/12 00:51:06;;;;;;;11.13;5.25;;;;;;;;;;6259775;22;20022;-80
2024/01/12 00:53:33;;;;;;;11.15;5.50;;;;;;;;;;6259759;22;20098;-80
2024/01/12 00:55:59;;;;;;;11.43;5.57;;;;;;;;;;6285009;22;20289;-80
2024/01/12 00:58:27;;;;;;;10.32;5.03;;;;;;;;;;6260480;22;20022;-79
2024/01/12 01:00:53;;;;;;;8.60;4.95;;;;;;;;;;6284839;22;20015;-80
2024/01/12 01:03:22;;;;;;;10.38;4.85;;;;;;;;;;6259103;22;20072;-80
2024/01/12 01:05:48;;;;;;;9.27;5.18;;;;;;;;;;6259879;22;20479;-80
2024/01/12 01:08:14;;;;;;;8.65;5.40;;;;;;;;;;6259737;22;20015;-80
2024/01/12 01:10:41;;;;;;;12.30;5.90;;;;;;;;;;6259551;22;20011;-79
2024/01/12 01:13:08;;;;;;;9.48;5.32;;;;;;;;;;6285417;22;20022;-81
2024/01/12 01:15:34;;;;;;;9.40;5.47;;;;;;;;;;6259892;22;20022;-80
2024/01/12 01:18:00;;;;;;;14.13;6.15;;;;;;;;;;6258791;22;20131;-80
2024/01/12 01:20:26;;;;;;;7.60;5.90;;;;;;;;;;6259659;22;20080;-80
2024/01/12 01:22:52;;;;;;;12.25;5.85;;;;;;;;;;6260007;22;20487;-80
2024/01/12 01:25:19;;;;;;;11.35;6.18;;;;;;;;;;6259502;22;20064;-80
2024/01/12 01:27:45;;;;;;;14.35;6.55;;;;;;;;;;6259808;22;20022;-80
2024/01/12 01:30:11;;;;;;;10.35;5.68;;;;;;;;;;6285261;22;20019;-80
2024/01/12 01:32:37;;;;;;;8.63;5.15;;;;;;;;;;6258666;22;20050;-80
2024/01/12 01:35:04;;;;;;;11.32;5.72;;;;;;;;;;6284394;22;20400;-80
2024/01/12 01:37:30;;;;;;;11.77;5.82;;;;;;;;;;6258757;22;20019;-80
2024/01/12 01:39:56;;;;;;;7.22;4.78;;;;;;;;;;6258414;22;20019;-80
2024/01/12 01:42:22;;;;;;;11.65;6.00;;;;;;;;;;6284543;22;20026;-80
2024/01/12 01:44:48;;;;;;;9.00;5.32;;;;;;;;;;6258914;22;20019;-79
2024/01/12 01:47:15;;;;;;;10.82;4.90;;;;;;;;;;6258269;22;20019;-80
2024/01/12 01:49:42;;;;;;;11.00;5.22;;;;;;;;;;6259866;22;20022;-81
2024/01/12 01:52:12;;;;;;;10.63;5.57;;;;;;;;;;6259052;22;20016;-79
2024/01/12 01:54:38;;;;;;;10.35;5.38;;;;;;;;;;6258912;22;20062;-80
2024/01/12 01:57:05;;;;;;;8.20;4.70;;;;;;;;;;6284034;22;20047;-80
2024/01/12 01:59:31;;;;;;;6.63;4.82;;;;;;;;;;6283827;22;20095;-80
2024/01/12 02:01:59;;;;;;;13.20;5.07;;;;;;;;;;6258058;22;20019;-80
2024/01/12 02:04:25;;;;;;;11.80;5.28;;;;;;;;;;6257775;22;20090;-80
2024/01/12 02:06:52;;;;;;;6.88;4.65;;;;;;;;;;6259142;22;20094;-80
2024/01/12 02:09:18;;;;;;;10.52;4.90;;;;;;;;;;6258501;22;20347;-80
2024/01/12 02:11:44;;;;;;;9.00;5.22;;;;;;;;;;6258461;22;20340;-80
2024/01/12 02:14:10;;;;;;;6.18;4.18;;;;;;;;;;6258643;22;20016;-79
2024/01/12 02:16:40;;;;;;;7.38;4.35;;;;;;;;;;6257987;22;20011;-80
2024/01/12 02:19:06;;;;;;;6.75;4.28;;;;;;;;;;6259153;22;20026;-80
2024/01/12 02:21:32;;;;;;;12.18;4.80;;;;;;;;;;6258407;22;20030;-80
2024/01/12 02:23:58;;;;;;;7.60;4.70;;;;;;;;;;6258541;22;20022;-80
2024/01/12 02:26:24;;;;;;;5.18;4.20;;;;;;;;;;6258377;22;20019;-80
2024/01/12 02:28:50;;;;;;;7.95;4.47;;;;;;;;;;6258207;22;20011;-80
2024/01/12 02:31:19;;;;;;;6.90;4.57;;;;;;;;;;6259207;22;20020;-79
2024/01/12 02:33:47;;;;;;;10.20;4.53;;;;;;;;;;6258429;22;20336;-80
2024/01/12 02:36:13;;;;;;;7.20;4.07;;;;;;;;;;6258545;22;20022;-80
2024/01/12 02:38:39;;;;;;;8.95;4.47;;;;;;;;;;6258511;22;20015;-80
2024/01/12 02:41:06;;;;;;;9.02;4.18;;;;;;;;;;6258618;22;20015;-80
2024/01/12 02:43:32;;;;;;;7.05;4.00;;;;;;;;;;6284097;22;20102;-79
2024/01/12 02:45:58;;;;;;;6.70;4.40;;;;;;;;;;6284100;22;20117;-80
2024/01/12 02:48:24;;;;;;;7.20;4.03;;;;;;;;;;6283441;22;20022;-79
2024/01/12 02:50:50;;;;;;;7.60;4.30;;;;;;;;;;6258305;22;20467;-79
2024/01/12 02:53:17;;;;;;;8.65;4.45;;;;;;;;;;6281952;22;20127;-80
2024/01/12 02:55:45;;;;;;;8.50;4.55;;;;;;;;;;6281860;22;20015;-79
2024/01/12 02:58:11;;;;;;;7.22;4.20;;;;;;;;;;6254779;22;20058;-79
2024/01/12 03:00:37;;;;;;;8.50;4.40;;;;;;;;;;6255084;22;20019;-80
2024/01/12 03:03:04;;;;;;;6.88;4.22;;;;;;;;;;6280580;22;20023;-80
2024/01/12 03:05:33;;;;;;;8.95;4.43;;;;;;;;;;6280593;22;20015;-80
2024/01/12 03:07:59;;;;;;;7.82;4.35;;;;;;;;;;6255105;22;20015;-80
2024/01/12 03:10:25;;;;;;;9.90;4.60;;;;;;;;;;6254628;22;20042;-79
2024/01/12 03:12:51;;;;;;;7.20;5.00;;;;;;;;;;6255437;22;20022;-79
2024/01/12 03:15:17;;;;;;;11.43;4.80;;;;;;;;;;6255590;22;20015;-79
2024/01/12 03:17:43;;;;;;;7.38;4.70;;;;;;;;;;6254770;22;20444;-79
2024/01/12 03:20:09;;;;;;;10.38;4.80;;;;;;;;;;6254070;22;20015;-79
2024/01/12 03:22:36;;;;;;;9.82;4.78;;;;;;;;;;6254490;22;20015;-79
2024/01/12 03:25:03;;;;;;;7.47;4.60;;;;;;;;;;6279545;22;20015;-79
2024/01/12 03:27:29;;;;;;;13.05;5.50;;;;;;;;;;6254720;22;20043;-79
2024/01/12 03:29:55;;;;;;;11.75;5.40;;;;;;;;;;6255133;22;20097;-80
2024/01/12 03:32:21;;;;;;;11.25;5.28;;;;;;;;;;6307315;22;20321;-79
2024/01/12 03:34:47;;;;;;;13.32;5.75;;;;;;;;;;6255072;22;20015;-79
2024/01/12 03:37:13;;;;;;;11.15;5.13;;;;;;;;;;6255153;22;20517;-79
2024/01/12 03:39:40;;;;;;;9.48;5.63;;;;;;;;;;6255217;22;20026;-79
2024/01/12 03:42:06;;;;;;;11.57;6.00;;;;;;;;;;6255696;22;20073;-79
2024/01/12 03:44:32;;;;;;;13.80;6.15;;;;;;;;;;6255044;22;20022;-80
2024/01/12 03:46:58;;;;;;;12.07;5.78;;;;;;;;;;6255173;22;20011;-79
2024/01/12 03:49:24;;;;;;;11.07;5.68;;;;;;;;;;6255599;22;20018;-80
2024/01/12 03:51:57;;;;;;;9.38;4.97;;;;;;;;;;6280907;22;20490;-81
2024/01/12 03:54:26;;;;;;;10.77;5.57;;;;;;;;;;6255204;22;20022;-79
2024/01/12 03:56:52;;;;;;;13.15;5.53;;;;;;;;;;6255716;22;20495;-79
2024/01/12 03:59:18;;;;;;;12.05;5.90;;;;;;;;;;6280832;22;20160;-79
2024/01/12 04:01:45;;;;;;;12.85;5.90;;;;;;;;;;6282068;22;20335;-79
2024/01/12 04:04:11;;;;;;;14.43;5.95;;;;;;;;;;6284064;22;20072;-80
2024/01/12 04:06:37;;;;;;;11.32;5.25;;;;;;;;;;6258048;22;20444;-80
2024/01/12 04:09:03;;;;;;;16.65;5.75;;;;;;;;;;6258335;22;20019;-80
2024/01/12 04:11:29;;;;;;;9.32;4.90;;;;;;;;;;6258588;22;20016;-80
2024/01/12 04:13:55;;;;;;;10.15;4.78;;;;;;;;;;6283185;22;20011;-80
2024/01/12 04:16:21;;;;;;;8.90;5.13;;;;;;;;;;6257725;22;20067;-79
2024/01/12 04:18:48;;;;;;;11.85;4.80;;;;;;;;;;6257905;22;20068;-79
2024/01/12 04:21:14;;;;;;;8.82;4.47;;;;;;;;;;6283857;22;20015;-80
2024/01/12 04:23:40;;;;;;;14.07;5.15;;;;;;;;;;6259559;22;20054;-79
2024/01/12 04:26:07;;;;;;;19.23;5.95;;;;;;;;;;6313979;22;20321;-80
2024/01/12 04:28:33;;;;;;;13.70;4.68;;;;;;;;;;6259936;22;20072;-80
2024/01/12 04:31:02;;;;;;;19.75;6.15;;;;;;;;;;6260064;22;20015;-80
2024/01/12 04:33:28;;;;;;;14.27;6.05;;;;;;;;;;6260601;22;20038;-79
2024/01/12 04:35:54;;;;;;;15.93;5.50;;;;;;;;;;6260797;22;20431;-80
2024/01/12 04:38:20;;;;;;;16.80;5.28;;;;;;;;;;6260631;22;20015;-80
2024/01/12 04:40:46;;;;;;;20.40;5.53;;;;;;;;;;6260968;22;20042;-80
2024/01/12 04:43:12;;;;;;;15.05;5.13;;;;;;;;;;6260428;22;20019;-80
2024/01/12 04:45:38;;;;;;;12.15;4.13;;;;;;;;;;6261009;22;20448;-80
2024/01/12 04:48:04;;;;;;;17.40;5.03;;;;;;;;;;6260754;22;20025;-80
2024/01/12 04:50:33;;;;;;;16.48;5.18;;;;;;;;;;6260484;22;20015;-80
2024/01/12 04:53:03;;;;;;;19.40;5.03;;;;;;;;;;6260547;22;20022;-81
2024/01/12 04:55:31;;;;;;;17.88;4.50;;;;;;;;;;6260573;22;20400;-79
2024/01/12 04:57:58;;;;;;;19.13;4.35;;;;;;;;;;6260712;22;20456;-80
2024/01/12 05:00:24;;;;;;;17.20;4.43;;;;;;;;;;6261711;22;20063;-80
2024/01/12 05:02:53;;;;;;;22.08;4.72;;;;;;;;;;6261103;22;20012;-80
2024/01/12 05:05:19;;;;;;;17.02;4.15;;;;;;;;;;6261769;22;20023;-80
2024/01/12 05:07:45;;;;;;;19.92;4.20;;;;;;;;;;6262326;22;20024;-80
2024/01/12 05:10:11;;;;;;;15.65;4.07;;;;;;;;;;6263014;22;20015;-80
2024/01/12 05:12:37;;;;;;;12.98;3.60;;;;;;;;;;6263679;22;20015;-80
2024/01/12 05:15:04;;;;;;;15.93;3.55;;;;;;;;;;6262967;22;20030;-80
2024/01/12 05:17:33;;;;;;;17.00;4.20;;;;;;;;;;6262108;22;20400;-79
2024/01/12 05:20:06;;;;;;;19.75;3.33;;;;;;;;;;6262991;22;20440;-80
2024/01/12 05:22:32;;;;;;;19.25;4.05;;;;;;;;;;6263042;22;20018;-81
2024/01/12 05:24:58;;;;;;;19.33;3.88;;;;;;;;;;6270224;22;20439;-80
2024/01/12 05:27:24;;;;;;;14.35;4.57;;;;;;;;;;6271545;22;20012;-81
2024/01/12 05:29:50;;;;;;;15.20;3.33;;;;;;;;;;6259596;22;20022;-80
2024/01/12 05:32:16;;;;;;;20.58;3.47;;;;;;;;;;6257953;22;20466;-80
2024/01/12 05:34:42;;;;;;;12.80;3.45;;;;;;;;;;6257822;22;20054;-80
2024/01/12 05:37:09;;;;;;;14.15;3.45;;;;;;;;;;6257793;22;20103;-80
2024/01/12 05:39:35;;;;;;;17.38;3.47;;;;;;;;;;6257620;22;20016;-80
2024/01/12 05:42:01;;;;;;;13.18;2.90;;;;;;;;;;6258571;22;20015;-79
2024/01/12 05:44:27;;;;;;;12.48;3.15;;;;;;;;;;6258240;22;20015;-80
2024/01/12 05:46:53;;;;;;;11.93;3.60;;;;;;;;;;6256404;22;20025;-80
2024/01/12 05:49:19;;;;;;;16.25;3.85;;;;;;;;;;6257189;22;20026;-80
2024/01/12 05:51:47;;;;;;;15.48;2.78;;;;;;;;;;6257603;22;20015;-80
2024/01/12 05:54:15;;;;;;;10.73;3.05;;;;;;;;;;6256878;22;20030;-80
2024/01/12 05:56:44;;;;;;;17.35;3.75;;;;;;;;;;6257573;22;20030;-80
2024/01/12 05:59:11;;;;;;;16.25;3.95;;;;;;;;;;6257154;22;20094;-80
2024/01/12 06:01:37;;;;;;;13.57;3.42;;;;;;;;;;6256684;22;20022;-80
2024/01/12 06:04:03;;;;;;;14.05;3.55;;;;;;;;;;6257277;22;20417;-80
2024/01/12 06:06:32;;;;;;;13.82;3.22;;;;;;;;;;6257908;22;20015;-80
2024/01/12 06:08:58;;;;;;;10.65;3.42;;;;;;;;;;6283549;22;20402;-80
2024/01/12 06:11:24;;;;;;;18.23;3.10;;;;;;;;;;6257665;22;20019;-80
2024/01/12 06:13:50;;;;;;;12.20;3.08;;;;;;;;;;6257568;22;20012;-80
2024/01/12 06:16:17;;;;;;;17.00;3.65;;;;;;;;;;6282871;22;20452;-80
2024/01/12 06:18:43;;;;;;;13.75;3.60;;;;;;;;;;6258768;22;20042;-80
2024/01/12 06:21:09;;;;;;;14.73;3.08;;;;;;;;;;6259164;22;20015;-80
2024/01/12 06:23:35;;;;;;;14.75;3.28;;;;;;;;;;6258791;22;20019;-79
2024/01/12 06:26:04;;;;;;;14.15;3.20;;;;;;;;;;6258043;22;20018;-79
2024/01/12 06:28:30;;;;;;;10.82;3.22;;;;;;;;;;6258108;22;20016;-80
2024/01/12 06:30:56;;;;;;;13.52;3.00;;;;;;;;;;6258057;22;20420;-80
2024/01/12 06:33:22;;;;;;;11.75;3.45;;;;;;;;;;6258838;22;20336;-80
2024/01/12 06:35:51;;;;;;;11.52;2.70;;;;;;;;;;6258914;22;20071;-79
2024/01/12 06:38:17;;;;;;;13.93;3.20;;;;;;;;;;6259396;22;20012;-80
2024/01/12 06:40:43;;;;;;;15.55;2.90;;;;;;;;;;6284881;22;20030;-79
2024/01/12 06:43:09;;;;;;;18.75;3.53;;;;;;;;;;6259409;22;20015;-79
2024/01/12 06:45:35;;;;;;;14.68;3.28;;;;;;;;;;6285177;22;20039;-80
2024/01/12 06:48:01;;;;;;;10.50;2.50;;;;;;;;;;6257524;22;20011;-80
2024/01/12 06:50:29;;;;;;;11.23;2.75;;;;;;;;;;6310899;22;20015;-81
2024/01/12 06:52:55;;;;;;;12.07;2.60;;;;;;;;;;6258075;22;20019;-80
2024/01/12 06:55:22;;;;;;;12.02;3.20;;;;;;;;;;6258459;22;20073;-80
2024/01/12 06:57:48;;;;;;;10.55;2.95;;;;;;;;;;6258528;22;20019;-80
2024/01/12 07:00:15;;;;;;;12.40;3.13;;;;;;;;;;6312617;22;20020;-81
2024/01/12 07:02:41;;;;;;;17.02;3.90;;;;;;;;;;6258503;22;20042;-81
2024/01/12 07:05:07;;;;;;;19.67;3.45;;;;;;;;;;6258941;22;20053;-81
2024/01/12 07:07:33;;;;;;;12.30;2.92;;;;;;;;;;6257610;22;20018;-80
2024/01/12 07:09:59;;;;;;;13.45;3.53;;;;;;;;;;6257245;22;20068;-80
2024/01/12 07:12:25;;;;;;;10.02;2.95;;;;;;;;;;6258068;22;20023;-80
2024/01/12 07:14:52;;;;;;;13.73;3.13;;;;;;;;;;6258310;22;20375;-79
2024/01/12 07:17:18;;;;;;;13.13;3.20;;;;;;;;;;6257683;22;20103;-79
2024/01/12 07:19:46;;;;;;;11.25;3.03;;;;;;;;;;6265437;22;20019;-79
2024/01/12 07:22:12;;;;;;;14.25;3.17;;;;;;;;;;6271950;22;20347;-80
2024/01/12 07:24:38;;;;;;;10.05;2.60;;;;;;;;;;6272687;22;20019;-79
2024/01/12 07:27:06;;;;;;;9.05;3.40;;;;;;;;;;6299219;22;20081;-80
2024/01/12 07:29:32;;;;;;;9.50;2.65;;;;;;;;;;6262710;22;20115;-80
2024/01/12 07:31:59;;;;;;;19.23;3.42;;;;;;;;;;6261012;22;20019;-80
2024/01/12 07:34:25;;;;;;;19.58;3.60;;;;;;;;;;6261794;22;20022;-80
2024/01/12 07:36:51;;;;;;;13.50;3.20;;;;;;;;;;6260510;22;20018;-79
2024/01/12 07:39:17;;;;;;;15.38;3.35;;;;;;;;;;6260740;22;20015;-80
2024/01/12 07:41:45;;;;;;;14.40;3.08;;;;;;;;;;6259836;22;20042;-80
2024/01/12 07:44:12;;;;;;;10.05;2.45;;;;;;;;;;6261080;22;20015;-80
2024/01/12 07:46:39;;;;;;;14.25;2.85;;;;;;;;;;6259668;22;20027;-80
2024/01/12 07:49:05;;;;;;;9.55;3.03;;;;;;;;;;6260167;22;20076;-80
2024/01/12 07:51:31;;;;;;;12.52;3.00;;;;;;;;;;6258520;22;20015;-79
2024/01/12 07:53:57;;;;;;;11.13;2.80;;;;;;;;;;6256076;22;20019;-79
2024/01/12 07:56:23;;;;;;;13.45;3.08;;;;;;;;;;6281400;22;20015;-79
2024/01/12 07:58:49;;;;;;;10.88;2.60;;;;;;;;;;6254741;22;20475;-79
2024/01/12 08:01:17;;;;;;;10.45;2.20;;;;;;;;;;6253720;22;20023;-80
2024/01/12 08:03:43;;;;;;;10.18;2.50;;;;;;;;;;6279460;22;20080;-80
2024/01/12 08:06:09;;;;;;;7.13;2.38;;;;;;;;;;6253284;22;20015;-81
2024/01/12 08:08:36;;;;;;;13.30;3.10;;;;;;;;;;6255318;22;20023;-83
2024/01/12 08:11:02;;;;;;;10.40;2.70;;;;;;;;;;6258123;22;20015;-81
2024/01/12 08:13:28;;;;;;;11.02;2.80;;;;;;;;;;6260961;22;20100;-81
2024/01/12 08:15:54;;;;;;;10.60;3.05;;;;;;;;;;6260796;22;20015;-81
2024/01/12 08:18:20;;;;;;;11.88;2.83;;;;;;;;;;6259823;22;20015;-81
2024/01/12 08:20:47;;;;;;;7.05;2.35;;;;;;;;;;6261795;22;20031;-82
2024/01/12 08:23:15;;;;;;;9.60;2.50;;;;;;;;;;6259038;22;20459;-80
2024/01/12 08:25:41;;;;;;;13.80;2.75;;;;;;;;;;6253660;22;20019;-82
2024/01/12 08:28:07;;;;;;;9.30;2.95;;;;;;;;;;6253425;22;20018;-82
2024/01/12 08:30:34;;;;;;;11.85;2.83;;;;;;;;;;6253720;22;20094;-82
2024/01/12 08:33:00;;;;;;;7.88;2.70;;;;;;;;;;6254039;22;20480;-79
2024/01/12 08:35:26;;;;;;;8.77;2.40;;;;;;;;;;6254091;22;20011;-79
2024/01/12 08:37:53;;;;;;;8.48;2.60;;;;;;;;;;6253574;22;20448;-79
2024/01/12 08:40:19;;;;;;;11.98;2.60;;;;;;;;;;6256080;22;20023;-80
2024/01/12 08:42:45;;;;;;;7.95;2.08;;;;;;;;;;6257198;22;20019;-80
2024/01/12 08:45:12;;;;;;;11.77;2.55;;;;;;;;;;6257411;22;20015;-80
2024/01/12 08:47:38;;;;;;;11.57;2.25;;;;;;;;;;6257446;22;20019;-80
2024/01/12 08:50:04;;;;;;;11.90;2.53;;;;;;;;;;6257679;22;20460;-81
2024/01/12 08:52:30;;;;;;;14.75;2.83;;;;;;;;;;6257659;22;20015;-81
2024/01/12 08:54:56;;;;;;;13.30;3.45;;;;;;;;;;6259572;22;20015;-81
2024/01/12 08:57:22;;;;;;;12.45;3.35;;;;;;;;;;6256199;22;20015;-82
2024/01/12 08:59:48;;;;;;;9.60;2.78;;;;;;;;;;6259547;22;20401;-82
2024/01/12 09:02:17;;;;;;;12.90;3.25;;;;;;;;;;6259511;22;20011;-81
2024/01/12 09:04:43;;;;;;;13.55;3.28;;;;;;;;;;6258586;22;20019;-81
2024/01/12 09:07:09;;;;;;;12.35;2.85;;;;;;;;;;6258080;22;20015;-82
2024/01/12 09:09:36;;;;;;;9.35;3.08;;;;;;;;;;6259036;22;20041;-82
2024/01/12 09:12:02;;;;;;;10.68;2.42;;;;;;;;;;6260063;22;20278;-81
2024/01/12 09:14:28;;;;;;;12.60;3.17;;;;;;;;;;6258857;22;20022;-80
2024/01/12 09:16:54;;;;;;;15.15;2.72;;;;;;;;;;6258497;22;20011;-79
2024/01/12 09:19:20;;;;;;;11.90;2.80;;;;;;;;;;6259002;22;20020;-80
2024/01/12 09:21:46;;;;;;;13.05;2.75;;;;;;;;;;6259783;22;20066;-80
2024/01/12 09:24:12;;;;;;;14.05;2.78;;;;;;;;;;6259143;22;20058;-80
2024/01/12 09:26:39;;;;;;;11.25;2.90;;;;;;;;;;6259630;22;20016;-80
2024/01/12 09:29:05;;;;;;;23.58;4.55;;;;;;;;;;6259135;22;20012;-80
2024/01/12 09:31:31;;;;;;;16.80;3.42;;;;;;;;;;6259091;22;20065;-79
2024/01/12 09:33:58;;;;;;;13.18;3.38;;;;;;;;;;6258711;22;20073;-79
2024/01/12 09:36:24;;;;;;;19.52;3.45;;;;;;;;;;6258976;22;20018;-80
2024/01/12 09:38:50;;;;;;;13.10;3.33;;;;;;;;;;6259077;22;20050;-79
2024/01/12 09:41:20;;;;;;;15.07;3.53;;;;;;;;;;6258880;22;20325;-80
2024/01/12 09:43:47;;;;;;;19.45;4.38;;;;;;;;;;6259478;22;20045;-79
2024/01/12 09:46:14;;;;;;;13.35;3.90;;;;;;;;;;6258873;22;20059;-79
2024/01/12 09:48:41;;;;;;;13.60;3.28;;;;;;;;;;6259394;22;20022;-79
2024/01/12 09:51:08;;;;;;;12.45;2.83;;;;;;;;;;6260095;22;20011;-79
2024/01/12 09:53:34;;;;;;;13.98;3.22;;;;;;;;;;6260748;22;20451;-79
2024/01/12 09:56:00;;;;;;;17.08;3.58;;;;;;;;;;6259765;22;20536;-80
2024/01/12 09:58:26;;;;;;;13.38;3.22;;;;;;;;;;6258811;22;20427;-80
2024/01/12 10:00:52;;;;;;;16.55;3.60;;;;;;;;;;6259901;22;20019;-82
2024/01/12 10:03:20;;;;;;;11.75;3.30;;;;;;;;;;6259852;22;20064;-81
2024/01/12 10:05:46;;;;;;;19.30;4.70;;;;;;;;;;6260083;22;20011;-81
2024/01/12 10:08:12;;;;;;;14.55;3.50;;;;;;;;;;6260427;22;20316;-83
2024/01/12 10:10:39;;;;;;;12.23;3.33;;;;;;;;;;6259213;22;20066;-83
2024/01/12 10:13:05;;;;;;;20.98;4.03;;;;;;;;;;6259837;22;20090;-82
2024/01/12 10:15:32;;;;;;;16.38;3.38;;;;;;;;;;6260973;22;20015;-83
2024/01/12 10:18:01;;;;;;;18.70;3.97;;;;;;;;;;6260338;22;20015;-82
2024/01/12 10:20:27;;;;;;;11.45;3.15;;;;;;;;;;6260631;22;20097;-82
2024/01/12 10:23:08;;;;;;;13.23;3.60;;;;;;;;;;6259529;22;20329;-82
2024/01/12 10:25:34;;;;;;;16.05;2.80;;;;;;;;;;6261546;22;20011;-82
2024/01/12 10:28:00;;;;;;;12.85;3.00;;;;;;;;;;6260836;22;20015;-82
2024/01/12 10:30:31;;;;;;;13.27;3.20;;;;;;;;;;6258780;22;20336;-81
2024/01/12 10:32:58;;;;;;;14.30;3.58;;;;;;;;;;6258414;22;20015;-82
2024/01/12 10:35:24;;;;;;;12.65;3.45;;;;;;;;;;6258774;22;20057;-79
2024/01/12 10:37:50;;;;;;;14.63;3.58;;;;;;;;;;6259148;22;20018;-81
2024/01/12 10:40:17;;;;;;;14.52;2.95;;;;;;;;;;6258675;22;20094;-83
2024/01/12 10:42:49;;;;;;;11.20;3.08;;;;;;;;;;6258531;22;20388;-83
2024/01/12 10:45:21;;;;;;;15.00;3.50;;;;;;;;;;6255925;22;20440;-83
2024/01/12 10:47:48;;;;;;;13.50;3.10;;;;;;;;;;6256049;22;20448;-80
2024/01/12 10:50:16;;;;;;;17.73;3.22;;;;;;;;;;6257152;22;20011;-80
2024/01/12 10:52:49;;;;;;;18.67;3.63;;;;;;;;;;6255152;22;20069;-80
2024/01/12 10:55:16;;;;;;;12.10;2.95;;;;;;;;;;6258218;22;20072;-80
2024/01/12 10:57:43;;;;;;;11.23;3.35;;;;;;;;;;6256680;22;20336;-80
2024/01/12 11:00:10;;;;;;;13.90;3.47;;;;;;;;;;6256875;22;20022;-80
2024/01/12 11:02:38;;;;;;;16.85;3.28;;;;;;;;;;6256789;22;20011;-80
2024/01/12 11:05:04;;;;;;;16.50;3.50;;;;;;;;;;6258203;22;20023;-80
2024/01/12 11:07:31;;;;;;;14.52;3.55;;;;;;;;;;6257259;22;20015;-80
2024/01/12 11:09:59;;;;;;;13.68;3.45;;;;;;;;;;6257585;22;20012;-80
2024/01/12 11:12:32;;;;;;;16.35;3.92;;;;;;;;;;6256731;22;20448;-80
2024/01/12 11:14:59;;;;;;;13.85;4.05;;;;;;;;;;6257404;22;20011;-81
2024/01/12 11:17:29;;;;;;;19.33;3.50;;;;;;;;;;6255500;22;20019;-80
2024/01/12 11:20:04;;;;;;;14.02;3.58;;;;;;;;;;6255740;22;20084;-80
2024/01/12 11:22:30;;;;;;;12.70;2.80;;;;;;;;;;6257571;22;20344;-80
2024/01/12 11:24:58;;;;;;;13.07;2.60;;;;;;;;;;6258121;22;20026;-80
2024/01/12 11:27:34;;;;;;;14.35;3.13;;;;;;;;;;6258627;22;20019;-80
2024/01/12 11:30:01;;;;;;;13.18;3.33;;;;;;;;;;6257674;22;20390;-80
2024/01/12 11:32:30;;;;;;;10.77;2.70;;;;;;;;;;6256701;22;20015;-81
2024/01/12 11:35:16;;;;;;;13.18;2.97;;;;;;;;;;6257518;22;20054;-80
2024/01/12 11:37:43;;;;;;;14.25;2.90;;;;;;;;;;6258267;22;20057;-80
2024/01/12 11:40:11;;;;;;;15.75;3.28;;;;;;;;;;6258227;22;20026;-81
2024/01/12 11:42:38;;;;;;;13.27;3.55;;;;;;;;;;6257473;22;20102;-81
2024/01/12 11:45:07;;;;;;;15.43;3.67;;;;;;;;;;6257555;22;20026;-80
2024/01/12 11:47:33;;;;;;;11.63;3.22;;;;;;;;;;6257638;22;20015;-81
2024/01/12 11:49:59;;;;;;;14.82;2.92;;;;;;;;;;6257339;22;20016;-81
2024/01/12 11:52:26;;;;;;;19.40;3.17;;;;;;;;;;6257776;22;20098;-81
2024/01/12 11:54:52;;;;;;;7.97;2.72;;;;;;;;;;6257217;22;20019;-81
2024/01/12 11:57:20;;;;;;;13.60;3.40;;;;;;;;;;6256843;22;20011;-81
2024/01/12 11:59:46;;;;;;;14.98;3.33;;;;;;;;;;6257436;22;20011;-80
2024/01/12 12:02:12;;;;;;;21.58;3.35;;;;;;;;;;6257064;22;20117;-80
2024/01/12 12:04:38;;;;;;;10.27;3.25;;;;;;;;;;6257110;22;20016;-80
2024/01/12 12:07:04;;;;;;;16.08;3.80;;;;;;;;;;6256438;22;20019;-80
2024/01/12 12:09:31;;;;;;;13.07;2.97;;;;;;;;;;6256988;22;20039;-80
2024/01/12 12:11:57;;;;;;;12.68;3.20;;;;;;;;;;6256313;22;20022;-81
2024/01/12 12:14:23;;;;;;;15.00;3.47;;;;;;;;;;6258103;22;20074;-81
2024/01/12 12:16:49;;;;;;;10.30;2.55;;;;;;;;;;6258241;22;20393;-80
2024/01/12 12:19:16;;;;;;;10.45;3.33;;;;;;;;;;6257431;22;20023;-80
2024/01/12 12:21:42;;;;;;;19.73;3.20;;;;;;;;;;6258090;22;20034;-80
2024/01/12 12:24:08;;;;;;;12.27;2.63;;;;;;;;;;6256059;22;20022;-81
2024/01/12 12:26:34;;;;;;;11.45;2.95;;;;;;;;;;6256809;22;20482;-81
2024/01/12 12:29:00;;;;;;;10.63;2.78;;;;;;;;;;6256766;22;20037;-80
2024/01/12 12:31:27;;;;;;;11.02;2.97;;;;;;;;;;6258137;22;20419;-81
2024/01/12 12:33:54;;;;;;;12.10;2.78;;;;;;;;;;6256688;22;20023;-81
2024/01/12 12:36:20;;;;;;;17.65;3.60;;;;;;;;;;6255759;22;20058;-81
2024/01/12 12:38:46;;;;;;;15.50;3.15;;;;;;;;;;6256520;22;20346;-80
2024/01/12 12:41:13;;;;;;;16.30;3.67;;;;;;;;;;6257833;22;20019;-80
2024/01/12 12:43:40;;;;;;;14.88;3.10;;;;;;;;;;6260801;22;20019;-80
2024/01/12 12:46:07;;;;;;;16.48;3.22;;;;;;;;;;6260572;22;20022;-80
2024/01/12 12:48:34;;;;;;;18.05;3.30;;;;;;;;;;6258254;22;20015;-80
2024/01/12 12:51:00;;;;;;;11.40;3.30;;;;;;;;;;6258392;22;20019;-80
2024/01/12 12:53:26;;;;;;;11.05;2.72;;;;;;;;;;6258954;22;20280;-80
2024/01/12 12:55:52;;;;;;;9.63;2.20;;;;;;;;;;6257196;22;20336;-80
2024/01/12 12:58:18;;;;;;;6.45;2.30;;;;;;;;;;6258097;22;20011;-80
2024/01/12 13:00:45;;;;;;;5.50;2.35;;;;;;;;;;6254846;22;20019;-79
2024/01/12 13:03:11;;;;;;;4.80;1.60;;;;;;;;;;6255298;22;20097;-80
2024/01/12 13:05:38;;;;;;;7.30;1.70;;;;;;;;;;6255517;22;20435;-80
2024/01/12 13:08:07;;;;;;;4.85;1.60;;;;;;;;;;6255315;22;20038;-80
2024/01/12 13:10:34;;;;;;;3.25;1.90;;;;;;;;;;6254033;22;20186;-80
2024/01/12 13:13:00;;;;;;;5.00;1.17;;;;;;;;;;6255050;22;20016;-80
2024/01/12 13:15:26;;;;;;;7.20;1.85;;;;;;;;;;6255152;22;20016;-80
2024/01/12 13:17:53;;;;;;;4.53;1.70;;;;;;;;;;6259932;22;20386;-80
2024/01/12 13:20:21;;;;;;;7.85;2.00;;;;;;;;;;6256655;22;20026;-80
2024/01/12 13:22:48;;;;;;;5.18;1.55;;;;;;;;;;6254887;22;20027;-80
2024/01/12 13:25:14;;;;;;;8.23;1.90;;;;;;;;;;6282181;22;20027;-79
2024/01/12 13:27:40;;;;;;;7.10;2.00;;;;;;;;;;6255662;22;20023;-79
2024/01/12 13:30:08;;;;;;;3.85;1.52;;;;;;;;;;6257591;22;20068;-79
2024/01/12 13:32:34;;;;;;;6.53;1.83;;;;;;;;;;6259689;22;20125;-79
2024/01/12 13:35:00;;;;;;;7.47;1.80;;;;;;;;;;6255227;22;20017;-79
2024/01/12 13:37:26;;;;;;;3.63;1.48;;;;;;;;;;6256323;22;20022;-81
2024/01/12 13:39:52;;;;;;;5.68;1.60;;;;;;;;;;6280067;22;20030;-80
2024/01/12 13:42:19;;;;;;;5.65;1.65;;;;;;;;;;6255272;22;20384;-81
2024/01/12 13:44:45;;;;;;;6.78;1.88;;;;;;;;;;6255255;22;20019;-81
2024/01/12 13:47:12;;;;;;;8.93;1.88;;;;;;;;;;6255692;22;20090;-83
2024/01/12 13:49:38;;;;;;;7.65;1.65;;;;;;;;;;6308017;22;20018;-82
2024/01/12 13:52:04;;;;;;;5.63;1.60;;;;;;;;;;6279092;22;20023;-82
2024/01/12 13:54:30;;;;;;;6.85;2.20;;;;;;;;;;6252216;22;20022;-82
2024/01/12 13:56:56;;;;;;;10.70;2.30;;;;;;;;;;6251693;22;20015;-81
2024/01/12 13:59:22;;;;;;;8.80;2.30;;;;;;;;;;6252398;22;20201;-81
2024/01/12 14:01:49;;;;;;;7.25;1.90;;;;;;;;;;6253849;22;20478;-81
2024/01/12 14:04:17;;;;;;;8.32;2.10;;;;;;;;;;6255621;22;20022;-81
2024/01/12 14:06:43;;;;;;;9.35;1.80;;;;;;;;;;6252156;22;20507;-81
2024/01/12 14:09:11;;;;;;;9.40;2.38;;;;;;;;;;6251601;22;20019;-80
2024/01/12 14:11:38;;;;;;;7.70;1.77;;;;;;;;;;6251445;22;20022;-81
2024/01/12 14:14:04;;;;;;;11.20;2.25;;;;;;;;;;6278848;22;20019;-81
2024/01/12 14:16:30;;;;;;;7.00;1.80;;;;;;;;;;6281742;22;20026;-82
2024/01/12 14:18:56;;;;;;;11.05;2.45;;;;;;;;;;6255993;22;20022;-82
2024/01/12 14:21:22;;;;;;;7.70;2.00;;;;;;;;;;6252843;22;20096;-81
2024/01/12 14:23:49;;;;;;;4.40;1.73;;;;;;;;;;6252405;22;20019;-82
2024/01/12 14:26:16;;;;;;;9.30;2.72;;;;;;;;;;6253511;22;20019;-82
2024/01/12 14:28:42;;;;;;;9.18;4.25;;;;;;;;;;6252115;22;20011;-81
2024/01/12 14:31:08;;;;;;;9.63;1.80;;;;;;;;;;6252029;22;20027;-82